Time;durP1;ratioP1;P1;durP2;ratioP2;P2;SDS_P1;SDS_P2;PMS_P1;PMS_P2;Temp;Humidity;BMP_temperature;BMP_pressure;BME280_temperature;BME280_humidity;BME280_pressure;Samples;Min_cycle;Max_cycle;Signal;HPM_P1;HPM_P2
2022/09/24 00:01:11;;;;;;;6.75;2.60;;;;;;;;;;5074454;28;20032;-25
2022/09/24 00:03:38;;;;;;;5.18;2.50;;;;;;;;;;5074334;28;20044;-28
2022/09/24 00:06:05;;;;;;;7.65;2.58;;;;;;;;;;5074491;28;20028;-25
2022/09/24 00:08:31;;;;;;;7.80;2.33;;;;;;;;;;5074380;28;20395;-25
2022/09/24 00:11:00;;;;;;;6.18;2.70;;;;;;;;;;5074678;28;20365;-27
2022/09/24 00:13:26;;;;;;;7.57;2.10;;;;;;;;;;5074573;28;20051;-25
2022/09/24 00:15:52;;;;;;;5.30;2.20;;;;;;;;;;5074622;28;20025;-28
2022/09/24 00:18:20;;;;;;;8.07;2.42;;;;;;;;;;5074354;28;20169;-27
2022/09/24 00:20:46;;;;;;;5.65;2.30;;;;;;;;;;5074310;28;20028;-27
2022/09/24 00:23:12;;;;;;;2.53;2.25;;;;;;;;;;5074359;28;20033;-24
2022/09/24 00:28:31;;;;;;;8.25;2.40;;;;;;;;;;5074333;28;20039;-25
2022/09/24 00:30:58;;;;;;;5.85;2.60;;;;;;;;;;5074535;28;20017;-25
2022/09/24 00:33:27;;;;;;;6.53;3.63;;;;;;;;;;5074398;28;20040;-27
2022/09/24 00:36:01;;;;;;;5.63;2.30;;;;;;;;;;5074414;28;20021;-24
2022/09/24 00:38:28;;;;;;;9.55;2.40;;;;;;;;;;5074146;28;20035;-28
2022/09/24 00:40:55;;;;;;;4.63;2.70;;;;;;;;;;5076389;28;20364;-24
2022/09/24 00:43:23;;;;;;;5.93;2.17;;;;;;;;;;5077911;28;20060;-24
2022/09/24 00:45:50;;;;;;;5.57;2.58;;;;;;;;;;5060284;28;20422;-24
2022/09/24 00:48:17;;;;;;;12.30;5.20;;;;;;;;;;5077789;28;20024;-28
2022/09/24 00:50:43;;;;;;;5.30;2.40;;;;;;;;;;5077823;28;20024;-24
2022/09/24 00:53:09;;;;;;;4.47;2.47;;;;;;;;;;5060079;28;20491;-27
2022/09/24 00:55:36;;;;;;;9.43;2.40;;;;;;;;;;5077751;28;20039;-26
2022/09/24 00:58:05;;;;;;;5.15;2.28;;;;;;;;;;5060077;28;20046;-27
2022/09/24 01:00:31;;;;;;;9.73;2.35;;;;;;;;;;5077670;28;20036;-27
2022/09/24 01:03:02;;;;;;;4.15;2.60;;;;;;;;;;5060287;28;20048;-25
2022/09/24 01:05:29;;;;;;;5.82;2.53;;;;;;;;;;5059975;28;20119;-24
2022/09/24 01:07:55;;;;;;;6.80;2.38;;;;;;;;;;5077424;28;20024;-26
2022/09/24 01:10:50;;;;;;;6.50;2.72;;;;;;;;;;5077433;28;20024;-25
2022/09/24 01:13:35;;;;;;;6.97;3.10;;;;;;;;;;5077594;28;20024;-25
2022/09/24 01:16:05;;;;;;;4.15;2.13;;;;;;;;;;5077603;28;20028;-26
2022/09/24 01:18:40;;;;;;;7.53;3.13;;;;;;;;;;5077608;28;20362;-24
2022/09/24 01:21:24;;;;;;;3.75;2.55;;;;;;;;;;5077264;28;20036;-26
2022/09/24 01:23:50;;;;;;;8.25;3.00;;;;;;;;;;5077122;28;20036;-28
2022/09/24 01:26:42;;;;;;;5.95;2.15;;;;;;;;;;5077450;28;20067;-30
2022/09/24 01:29:27;;;;;;;8.50;3.10;;;;;;;;;;5046603;28;20127;-25
2022/09/24 01:32:06;;;;;;;5.88;2.67;;;;;;;;;;5077285;28;20032;-26
2022/09/24 01:34:39;;;;;;;4.72;2.50;;;;;;;;;;5077026;28;20031;-25
2022/09/24 01:37:06;;;;;;;13.05;3.13;;;;;;;;;;5077262;28;20338;-26
2022/09/24 01:39:33;;;;;;;7.20;3.60;;;;;;;;;;5076951;28;20024;-25
2022/09/24 01:41:59;;;;;;;9.65;2.85;;;;;;;;;;5076797;28;20036;-28
2022/09/24 01:44:26;;;;;;;4.78;2.58;;;;;;;;;;5076867;28;20032;-26
2022/09/24 01:46:52;;;;;;;6.65;2.20;;;;;;;;;;5059183;28;20040;-28
2022/09/24 01:49:18;;;;;;;7.35;2.38;;;;;;;;;;5076638;28;20028;-28
2022/09/24 01:51:48;;;;;;;6.95;2.53;;;;;;;;;;5058855;28;20081;-25
2022/09/24 01:54:24;;;;;;;7.40;2.60;;;;;;;;;;5077783;28;20085;-26
2022/09/24 01:56:52;;;;;;;4.80;2.35;;;;;;;;;;5076652;28;20035;-25
2022/09/24 01:59:30;;;;;;;4.22;2.28;;;;;;;;;;5076529;28;20025;-25
2022/09/24 02:01:59;;;;;;;5.07;3.17;;;;;;;;;;5076400;28;20642;-25
2022/09/24 02:04:27;;;;;;;6.75;2.92;;;;;;;;;;5076341;28;20059;-25
2022/09/24 02:06:53;;;;;;;5.20;2.33;;;;;;;;;;5076419;28;20481;-25
2022/09/24 02:09:33;;;;;;;7.80;2.83;;;;;;;;;;5058668;28;20021;-24
2022/09/24 02:12:01;;;;;;;5.78;2.35;;;;;;;;;;5076541;28;20024;-26
2022/09/24 02:14:29;;;;;;;2.85;2.10;;;;;;;;;;5076341;28;20025;-28
2022/09/24 02:16:55;;;;;;;6.60;2.72;;;;;;;;;;5059438;28;20048;-26
2022/09/24 02:19:23;;;;;;;4.63;2.85;;;;;;;;;;5076455;28;20085;-30
2022/09/24 02:21:50;;;;;;;11.43;3.42;;;;;;;;;;5058383;28;20467;-25
2022/09/24 02:24:19;;;;;;;4.55;2.88;;;;;;;;;;5076287;28;20048;-26
2022/09/24 02:26:45;;;;;;;8.02;2.95;;;;;;;;;;5058455;28;20369;-26
2022/09/24 02:29:12;;;;;;;5.47;2.33;;;;;;;;;;5075905;28;20020;-27
2022/09/24 02:31:40;;;;;;;5.30;2.55;;;;;;;;;;5059064;28;20107;-29
2022/09/24 02:34:19;;;;;;;4.03;3.08;;;;;;;;;;5076039;28;20089;-25
2022/09/24 02:36:47;;;;;;;7.47;2.60;;;;;;;;;;5075810;28;20099;-25
2022/09/24 02:39:13;;;;;;;5.70;2.95;;;;;;;;;;5041721;28;20036;-29
2022/09/24 02:41:41;;;;;;;4.50;2.20;;;;;;;;;;5075998;28;20052;-25
2022/09/24 02:44:07;;;;;;;7.45;2.50;;;;;;;;;;5075829;28;20381;-30
2022/09/24 02:46:33;;;;;;;8.32;2.80;;;;;;;;;;5075585;28;20043;-30
2022/09/24 02:49:00;;;;;;;6.05;2.50;;;;;;;;;;5075525;28;20036;-30
2022/09/24 02:51:27;;;;;;;4.55;2.85;;;;;;;;;;5075829;28;20081;-28
2022/09/24 02:53:53;;;;;;;2.53;2.13;;;;;;;;;;5075647;28;20048;-27
2022/09/24 02:56:19;;;;;;;8.98;2.80;;;;;;;;;;5057897;28;20349;-25
2022/09/24 02:58:45;;;;;;;3.78;2.33;;;;;;;;;;5075421;28;20032;-27
2022/09/24 03:01:11;;;;;;;4.90;2.90;;;;;;;;;;5075357;28;20458;-25
2022/09/24 03:03:37;;;;;;;8.23;4.05;;;;;;;;;;5074633;28;20205;-25
2022/09/24 03:06:03;;;;;;;6.63;2.65;;;;;;;;;;5075257;28;20032;-24
2022/09/24 03:08:31;;;;;;;9.32;2.50;;;;;;;;;;5075421;28;20157;-25
2022/09/24 03:10:57;;;;;;;5.68;2.70;;;;;;;;;;5057554;28;20024;-25
2022/09/24 03:13:23;;;;;;;5.35;3.10;;;;;;;;;;5057481;28;20028;-26
2022/09/24 03:15:49;;;;;;;6.43;3.95;;;;;;;;;;5075054;28;20032;-24
2022/09/24 03:18:15;;;;;;;4.93;3.38;;;;;;;;;;5075323;28;20103;-24
2022/09/24 03:20:42;;;;;;;5.03;2.63;;;;;;;;;;5075053;28;20342;-25
2022/09/24 03:23:08;;;;;;;4.50;2.70;;;;;;;;;;5057241;28;20036;-24
2022/09/24 03:25:34;;;;;;;5.75;3.20;;;;;;;;;;5074923;28;20032;-23
2022/09/24 03:28:00;;;;;;;5.30;2.78;;;;;;;;;;5057251;28;20419;-25
2022/09/24 03:33:11;;;;;;;4.32;2.80;;;;;;;;;;5075054;28;20036;-27
2022/09/24 03:35:37;;;;;;;6.97;2.80;;;;;;;;;;5074682;28;20028;-26
2022/09/24 03:38:03;;;;;;;8.00;3.83;;;;;;;;;;5074990;28;20512;-25
2022/09/24 03:40:29;;;;;;;3.00;2.70;;;;;;;;;;5075012;28;20060;-29
2022/09/24 03:42:56;;;;;;;3.15;2.55;;;;;;;;;;5074667;28;20021;-27
2022/09/24 03:45:22;;;;;;;3.28;2.17;;;;;;;;;;5074653;28;20097;-26
2022/09/24 03:47:48;;;;;;;6.38;2.95;;;;;;;;;;5074422;28;20123;-27
2022/09/24 03:50:14;;;;;;;5.63;2.47;;;;;;;;;;5074668;28;20020;-24
2022/09/24 03:52:40;;;;;;;5.45;2.97;;;;;;;;;;5056902;28;20369;-29
2022/09/24 03:55:07;;;;;;;6.57;3.10;;;;;;;;;;5074573;28;20040;-27
2022/09/24 03:57:33;;;;;;;3.50;2.53;;;;;;;;;;5074759;28;20104;-24
2022/09/24 03:59:59;;;;;;;3.28;2.40;;;;;;;;;;5074795;28;20051;-29
2022/09/24 04:02:26;;;;;;;3.10;2.05;;;;;;;;;;5074415;28;20419;-24
2022/09/24 04:04:52;;;;;;;2.92;2.65;;;;;;;;;;5074266;28;20115;-24
2022/09/24 04:07:18;;;;;;;4.20;2.80;;;;;;;;;;5074312;28;20021;-26
2022/09/24 04:09:45;;;;;;;5.97;3.00;;;;;;;;;;5074475;28;20032;-25
2022/09/24 04:12:12;;;;;;;3.75;2.90;;;;;;;;;;5073972;28;20024;-25
2022/09/24 04:14:38;;;;;;;3.55;2.30;;;;;;;;;;5074350;28;20450;-25
2022/09/24 04:17:04;;;;;;;6.05;2.47;;;;;;;;;;5078382;28;20028;-24
2022/09/24 04:19:30;;;;;;;4.07;2.08;;;;;;;;;;5078588;28;20107;-27
2022/09/24 04:21:57;;;;;;;6.53;2.65;;;;;;;;;;5078307;28;20036;-25
2022/09/24 04:24:23;;;;;;;4.68;2.75;;;;;;;;;;5078144;28;20103;-28
2022/09/24 04:26:49;;;;;;;3.60;2.42;;;;;;;;;;5078065;28;20032;-26
2022/09/24 04:29:15;;;;;;;3.88;2.65;;;;;;;;;;5077899;28;20039;-26
2022/09/24 04:31:42;;;;;;;8.13;3.25;;;;;;;;;;5060286;28;20024;-27
2022/09/24 04:34:09;;;;;;;5.85;3.65;;;;;;;;;;5077887;28;20055;-24
2022/09/24 04:36:35;;;;;;;6.78;3.03;;;;;;;;;;5078073;28;20021;-25
2022/09/24 04:39:02;;;;;;;4.40;2.20;;;;;;;;;;5060315;28;20029;-26
2022/09/24 04:41:28;;;;;;;3.90;2.60;;;;;;;;;;5077756;28;20024;-26
2022/09/24 04:43:55;;;;;;;3.20;2.17;;;;;;;;;;5077542;28;20110;-26
2022/09/24 04:46:22;;;;;;;4.20;2.75;;;;;;;;;;5077733;28;20036;-27
2022/09/24 04:48:48;;;;;;;5.50;2.92;;;;;;;;;;5078248;28;20118;-25
2022/09/24 04:51:18;;;;;;;3.22;2.63;;;;;;;;;;5078329;28;20437;-28
2022/09/24 04:53:46;;;;;;;5.75;2.70;;;;;;;;;;5077549;28;20035;-28
2022/09/24 04:56:13;;;;;;;4.50;2.50;;;;;;;;;;5077800;28;20381;-26
2022/09/24 04:58:39;;;;;;;6.03;2.70;;;;;;;;;;5077475;28;20464;-26
2022/09/24 05:01:05;;;;;;;3.95;2.95;;;;;;;;;;5077388;28;20480;-25
2022/09/24 05:03:32;;;;;;;4.25;2.55;;;;;;;;;;5077176;28;20088;-24
2022/09/24 05:05:58;;;;;;;4.03;2.50;;;;;;;;;;5077345;28;20365;-25
2022/09/24 05:08:24;;;;;;;4.18;2.70;;;;;;;;;;5077250;28;20029;-27
2022/09/24 05:10:52;;;;;;;7.32;3.72;;;;;;;;;;5077136;28;20353;-27
2022/09/24 05:13:18;;;;;;;4.07;2.60;;;;;;;;;;5077375;28;20476;-28
2022/09/24 05:15:44;;;;;;;6.05;2.97;;;;;;;;;;5077205;28;20021;-25
2022/09/24 05:18:10;;;;;;;4.95;2.60;;;;;;;;;;5059498;28;20035;-29
2022/09/24 05:20:36;;;;;;;7.93;3.10;;;;;;;;;;5076857;28;20487;-24
2022/09/24 05:23:04;;;;;;;10.85;3.90;;;;;;;;;;5059381;28;20333;-28
2022/09/24 05:25:30;;;;;;;7.63;2.90;;;;;;;;;;5076558;28;20174;-29
2022/09/24 05:27:56;;;;;;;5.65;2.85;;;;;;;;;;5076885;28;20118;-27
2022/09/24 05:30:23;;;;;;;8.23;3.97;;;;;;;;;;5059322;28;20020;-25
2022/09/24 05:32:53;;;;;;;10.40;3.40;;;;;;;;;;5059191;28;20025;-26
2022/09/24 05:35:20;;;;;;;8.25;3.00;;;;;;;;;;5076818;28;20025;-29
2022/09/24 05:37:48;;;;;;;6.45;2.42;;;;;;;;;;5077082;28;20034;-25
2022/09/24 05:43:00;;;;;;;9.77;3.20;;;;;;;;;;5076941;28;20048;-25
2022/09/24 05:45:27;;;;;;;12.23;4.07;;;;;;;;;;5076641;28;20051;-29
2022/09/24 05:47:53;;;;;;;6.07;3.20;;;;;;;;;;5076252;28;20046;-26
2022/09/24 05:50:20;;;;;;;10.93;2.90;;;;;;;;;;5076360;28;20032;-27
2022/09/24 05:52:46;;;;;;;5.00;2.72;;;;;;;;;;5076312;28;20528;-29
2022/09/24 05:55:12;;;;;;;11.05;3.20;;;;;;;;;;5076361;28;20161;-28
2022/09/24 05:57:38;;;;;;;14.32;3.58;;;;;;;;;;5076158;28;20036;-27
2022/09/24 06:00:06;;;;;;;8.27;3.42;;;;;;;;;;5076124;28;20369;-27
2022/09/24 06:02:32;;;;;;;7.90;2.30;;;;;;;;;;5076035;28;20025;-26
2022/09/24 06:04:58;;;;;;;12.18;2.95;;;;;;;;;;5076068;28;20123;-30
2022/09/24 06:07:24;;;;;;;10.30;3.75;;;;;;;;;;5075945;28;20028;-28
2022/09/24 06:09:50;;;;;;;6.70;2.70;;;;;;;;;;5076006;28;20029;-29
2022/09/24 06:12:16;;;;;;;19.33;3.13;;;;;;;;;;5076222;28;20021;-26
2022/09/24 06:14:43;;;;;;;6.65;3.28;;;;;;;;;;5076357;28;20349;-29
2022/09/24 06:17:09;;;;;;;7.63;3.03;;;;;;;;;;5075823;28;20028;-28
2022/09/24 06:19:35;;;;;;;10.60;3.15;;;;;;;;;;5076095;28;20052;-27
2022/09/24 06:22:01;;;;;;;14.88;3.78;;;;;;;;;;5075992;28;20024;-26
2022/09/24 06:24:27;;;;;;;11.77;3.45;;;;;;;;;;5058080;28;20346;-26
2022/09/24 06:26:54;;;;;;;10.75;4.05;;;;;;;;;;5057875;28;20034;-27
2022/09/24 06:29:20;;;;;;;5.70;2.97;;;;;;;;;;5075806;28;20039;-27
2022/09/24 06:31:46;;;;;;;8.27;3.13;;;;;;;;;;5075692;28;20063;-27
2022/09/24 06:34:14;;;;;;;11.45;3.25;;;;;;;;;;5075599;28;20365;-26
2022/09/24 06:36:40;;;;;;;10.43;3.33;;;;;;;;;;5057930;28;20024;-26
2022/09/24 06:39:07;;;;;;;11.27;2.92;;;;;;;;;;5074505;28;20036;-25
2022/09/24 06:41:33;;;;;;;11.25;3.40;;;;;;;;;;5057864;28;20035;-28
2022/09/24 06:43:59;;;;;;;14.07;2.97;;;;;;;;;;5075249;28;20036;-30
2022/09/24 06:46:26;;;;;;;20.85;3.33;;;;;;;;;;5075493;28;20044;-30
2022/09/24 06:48:55;;;;;;;17.10;3.20;;;;;;;;;;5075351;28;20407;-27
2022/09/24 06:51:21;;;;;;;14.80;3.88;;;;;;;;;;5075112;28;20028;-26
2022/09/24 06:53:51;;;;;;;15.40;4.53;;;;;;;;;;5075367;28;20035;-27
2022/09/24 06:56:17;;;;;;;7.78;3.10;;;;;;;;;;5057439;28;20472;-25
2022/09/24 06:58:43;;;;;;;17.80;3.70;;;;;;;;;;5058271;28;20024;-24
2022/09/24 07:01:09;;;;;;;8.77;2.92;;;;;;;;;;5075028;28;20056;-27
2022/09/24 07:03:37;;;;;;;10.27;3.40;;;;;;;;;;5057153;28;20102;-25
2022/09/24 07:06:04;;;;;;;11.50;3.03;;;;;;;;;;5057498;28;20120;-24
2022/09/24 07:08:31;;;;;;;9.93;3.13;;;;;;;;;;5074920;28;20059;-27
2022/09/24 07:10:57;;;;;;;16.45;3.35;;;;;;;;;;5074837;28;20380;-24
2022/09/24 07:13:24;;;;;;;16.02;4.00;;;;;;;;;;5057338;28;20017;-28
2022/09/24 07:15:51;;;;;;;13.93;4.03;;;;;;;;;;5074994;28;20449;-26
2022/09/24 07:18:17;;;;;;;14.98;4.25;;;;;;;;;;5057139;28;20124;-25
2022/09/24 07:20:44;;;;;;;10.63;3.00;;;;;;;;;;5075080;28;20295;-27
2022/09/24 07:23:12;;;;;;;12.98;3.90;;;;;;;;;;5074515;28;20461;-27
2022/09/24 07:25:38;;;;;;;12.80;3.50;;;;;;;;;;5057840;28;20115;-28
2022/09/24 07:28:05;;;;;;;10.27;3.17;;;;;;;;;;5074810;28;20039;-25
2022/09/24 07:30:32;;;;;;;11.32;3.75;;;;;;;;;;5074832;28;20025;-25
2022/09/24 07:32:59;;;;;;;6.10;3.05;;;;;;;;;;5074596;28;20069;-24
2022/09/24 07:35:25;;;;;;;9.07;4.00;;;;;;;;;;5057006;28;20020;-27
2022/09/24 07:38:02;;;;;;;18.23;3.25;;;;;;;;;;5074580;28;20093;-25
2022/09/24 07:40:29;;;;;;;27.38;4.03;;;;;;;;;;5074861;28;20507;-26
2022/09/24 07:42:55;;;;;;;13.88;3.38;;;;;;;;;;5074468;28;20039;-24
2022/09/24 07:45:22;;;;;;;15.98;3.60;;;;;;;;;;5074352;28;20449;-27
2022/09/24 07:47:56;;;;;;;25.73;4.20;;;;;;;;;;5074848;28;20128;-25
2022/09/24 07:50:22;;;;;;;14.50;3.25;;;;;;;;;;5074613;28;20029;-25
2022/09/24 07:52:51;;;;;;;14.90;3.22;;;;;;;;;;5074380;28;20021;-29
2022/09/24 07:55:18;;;;;;;17.00;3.85;;;;;;;;;;5074394;28;20025;-28
2022/09/24 07:57:51;;;;;;;12.50;3.47;;;;;;;;;;5074628;28;20097;-26
2022/09/24 08:00:18;;;;;;;10.23;2.90;;;;;;;;;;5074361;28;20035;-25
2022/09/24 08:02:45;;;;;;;12.15;3.33;;;;;;;;;;5074010;28;20432;-29
2022/09/24 08:05:12;;;;;;;10.35;2.85;;;;;;;;;;5056558;28;20036;-26
2022/09/24 08:07:39;;;;;;;13.15;3.80;;;;;;;;;;5074059;28;20116;-26
2022/09/24 08:10:05;;;;;;;11.45;3.40;;;;;;;;;;5074406;28;20409;-26
2022/09/24 08:12:31;;;;;;;12.52;3.53;;;;;;;;;;5074029;28;20145;-25
2022/09/24 08:14:57;;;;;;;18.40;3.95;;;;;;;;;;5074386;28;20056;-26
2022/09/24 08:17:23;;;;;;;17.58;4.47;;;;;;;;;;5074400;28;20130;-25
2022/09/24 08:19:51;;;;;;;7.57;2.80;;;;;;;;;;5074043;28;20099;-25
2022/09/24 08:22:17;;;;;;;10.68;3.38;;;;;;;;;;5074254;28;20048;-29
2022/09/24 08:24:43;;;;;;;14.07;3.60;;;;;;;;;;5074041;28;20437;-25
2022/09/24 08:27:09;;;;;;;13.52;3.75;;;;;;;;;;5074094;28;20024;-24
2022/09/24 08:29:36;;;;;;;9.15;4.20;;;;;;;;;;5074064;28;20074;-26
2022/09/24 08:32:02;;;;;;;13.90;3.65;;;;;;;;;;5073968;28;20402;-27
2022/09/24 08:34:28;;;;;;;9.13;2.83;;;;;;;;;;5057269;28;20459;-26
2022/09/24 08:36:54;;;;;;;20.35;3.60;;;;;;;;;;5074177;28;20465;-25
2022/09/24 08:39:20;;;;;;;16.55;4.07;;;;;;;;;;5056134;28;20097;-25
2022/09/24 08:41:46;;;;;;;22.70;4.03;;;;;;;;;;5073773;28;20035;-29
2022/09/24 08:47:21;;;;;;;17.70;3.72;;;;;;;;;;5074019;28;20044;-27
2022/09/24 08:47:24;;;;;;;20.05;3.70;;;;;;;;;;5073851;28;20040;-27
2022/09/24 08:49:55;;;;;;;23.30;3.83;;;;;;;;;;5073932;28;20069;-25
2022/09/24 08:52:24;;;;;;;22.00;3.90;;;;;;;;;;5074127;28;20031;-29
2022/09/24 08:54:51;;;;;;;19.98;4.15;;;;;;;;;;5073870;28;20060;-27
2022/09/24 08:57:19;;;;;;;18.08;3.47;;;;;;;;;;5056166;28;20086;-25
2022/09/24 08:59:49;;;;;;;6.15;2.90;;;;;;;;;;5074054;28;20386;-25
2022/09/24 09:02:33;;;;;;;12.88;4.28;;;;;;;;;;5076302;28;20028;-25
2022/09/24 09:05:03;;;;;;;15.07;4.00;;;;;;;;;;5077407;28;20040;-29
2022/09/24 09:07:39;;;;;;;19.25;4.07;;;;;;;;;;5077626;28;20424;-29
2022/09/24 09:10:27;;;;;;;16.48;3.92;;;;;;;;;;5060454;28;20112;-26
2022/09/24 09:12:56;;;;;;;7.47;3.85;;;;;;;;;;5077542;28;20025;-28
2022/09/24 09:15:25;;;;;;;10.50;4.45;;;;;;;;;;5078015;28;20031;-25
2022/09/24 09:17:57;;;;;;;20.60;3.83;;;;;;;;;;5077432;28;20032;-30
2022/09/24 09:20:40;;;;;;;14.77;3.90;;;;;;;;;;5077234;28;20029;-25
2022/09/24 09:23:12;;;;;;;25.42;4.25;;;;;;;;;;5077001;28;20033;-25
2022/09/24 09:25:40;;;;;;;11.85;3.40;;;;;;;;;;5076992;28;20032;-26
2022/09/24 09:28:13;;;;;;;8.35;3.53;;;;;;;;;;5076883;28;20028;-25
2022/09/24 09:30:55;;;;;;;15.77;3.53;;;;;;;;;;5076816;28;20016;-27
2022/09/24 09:33:30;;;;;;;19.27;4.05;;;;;;;;;;5076670;28;20461;-28
2022/09/24 09:35:59;;;;;;;22.88;5.85;;;;;;;;;;5077219;28;20287;-26
2022/09/24 09:38:30;;;;;;;18.50;3.90;;;;;;;;;;5076813;28;20104;-29
2022/09/24 09:40:58;;;;;;;21.67;4.20;;;;;;;;;;5076786;28;20174;-25
2022/09/24 09:43:25;;;;;;;8.77;4.15;;;;;;;;;;5076840;28;20024;-26
2022/09/24 09:45:55;;;;;;;16.45;3.58;;;;;;;;;;5076868;28;20101;-27
2022/09/24 09:48:23;;;;;;;12.73;3.80;;;;;;;;;;5076731;28;20036;-29
2022/09/24 09:51:04;;;;;;;13.40;5.03;;;;;;;;;;5076535;28;20338;-28
2022/09/24 09:53:31;;;;;;;15.77;3.53;;;;;;;;;;5076402;28;20024;-27
2022/09/24 09:56:01;;;;;;;17.92;4.20;;;;;;;;;;5058709;28;20020;-30
2022/09/24 09:58:32;;;;;;;20.17;4.00;;;;;;;;;;5059634;28;20035;-27
2022/09/24 10:01:09;;;;;;;20.60;4.78;;;;;;;;;;5076503;28;20334;-30
2022/09/24 10:03:56;;;;;;;11.02;3.55;;;;;;;;;;5075922;28;20392;-28
2022/09/24 10:06:24;;;;;;;18.80;4.05;;;;;;;;;;5076323;28;20038;-27
2022/09/24 10:08:50;;;;;;;17.73;3.60;;;;;;;;;;5076406;28;20025;-26
2022/09/24 10:11:17;;;;;;;14.82;4.10;;;;;;;;;;5076416;28;20028;-26
2022/09/24 10:13:44;;;;;;;7.95;3.40;;;;;;;;;;5075885;28;20020;-25
2022/09/24 10:16:12;;;;;;;14.52;3.58;;;;;;;;;;5076048;28;20035;-26
2022/09/24 10:18:48;;;;;;;13.73;3.55;;;;;;;;;;5076281;28;20050;-26
2022/09/24 10:21:47;;;;;;;13.10;3.55;;;;;;;;;;5075804;28;20032;-25
2022/09/24 10:24:15;;;;;;;18.08;4.53;;;;;;;;;;5032034;28;20115;-30
2022/09/24 10:26:43;;;;;;;15.10;4.25;;;;;;;;;;5076168;28;20029;-30
2022/09/24 10:31:59;;;;;;;18.58;3.85;;;;;;;;;;5075970;28;20046;-25
2022/09/24 10:34:27;;;;;;;8.60;3.42;;;;;;;;;;5075952;28;20110;-26
2022/09/24 10:37:04;;;;;;;11.07;4.38;;;;;;;;;;5075882;28;20040;-25
2022/09/24 10:39:30;;;;;;;15.45;3.85;;;;;;;;;;5075900;28;20028;-26
2022/09/24 10:41:57;;;;;;;9.48;3.55;;;;;;;;;;5075748;28;20107;-27
2022/09/24 10:44:26;;;;;;;17.27;4.07;;;;;;;;;;5075796;28;20361;-30
2022/09/24 10:47:10;;;;;;;12.90;3.40;;;;;;;;;;5075761;28;20047;-26
2022/09/24 10:49:36;;;;;;;18.77;5.22;;;;;;;;;;5075673;28;20419;-28
2022/09/24 10:52:09;;;;;;;9.43;3.70;;;;;;;;;;5075284;28;20024;-28
2022/09/24 10:54:35;;;;;;;15.18;4.10;;;;;;;;;;5075630;28;20024;-30
2022/09/24 10:57:07;;;;;;;12.13;4.22;;;;;;;;;;5075175;28;20120;-27
2022/09/24 10:59:45;;;;;;;10.90;3.88;;;;;;;;;;5075104;28;20086;-30
2022/09/24 11:02:27;;;;;;;16.48;4.45;;;;;;;;;;5075499;28;20024;-25
2022/09/24 11:04:53;;;;;;;21.45;4.97;;;;;;;;;;5075466;28;20036;-28
2022/09/24 11:07:34;;;;;;;8.88;3.17;;;;;;;;;;5075318;28;20342;-28
2022/09/24 11:10:18;;;;;;;7.17;4.27;;;;;;;;;;5075346;28;20101;-27
2022/09/24 11:12:51;;;;;;;12.75;4.07;;;;;;;;;;5074951;28;20031;-28
2022/09/24 11:15:23;;;;;;;7.25;3.70;;;;;;;;;;5074957;28;20039;-26
2022/09/24 11:17:53;;;;;;;9.77;3.38;;;;;;;;;;5074890;28;20051;-25
2022/09/24 11:20:26;;;;;;;21.90;4.32;;;;;;;;;;5075163;28;20422;-25
2022/09/24 11:22:59;;;;;;;15.70;4.55;;;;;;;;;;5074876;28;20032;-26
2022/09/24 11:25:55;;;;;;;9.73;3.72;;;;;;;;;;5074738;28;20032;-25
2022/09/24 11:28:27;;;;;;;23.00;4.00;;;;;;;;;;5057276;28;20078;-25
2022/09/24 11:31:07;;;;;;;12.27;4.28;;;;;;;;;;5074668;28;20045;-30
2022/09/24 11:33:36;;;;;;;14.83;4.43;;;;;;;;;;5074718;28;20095;-27
2022/09/24 11:36:03;;;;;;;12.98;3.67;;;;;;;;;;5075000;28;20027;-29
2022/09/24 11:38:43;;;;;;;10.57;4.07;;;;;;;;;;5074612;28;20047;-29
2022/09/24 11:41:36;;;;;;;11.20;3.58;;;;;;;;;;5057077;28;20464;-26
2022/09/24 11:44:05;;;;;;;7.47;4.53;;;;;;;;;;5070926;28;20496;-26
2022/09/24 11:46:31;;;;;;;9.57;3.90;;;;;;;;;;5074639;28;20020;-26
2022/09/24 11:49:01;;;;;;;10.45;3.58;;;;;;;;;;5074763;28;20024;-27
2022/09/24 11:51:28;;;;;;;9.80;4.00;;;;;;;;;;5074686;28;20051;-30
2022/09/24 11:54:05;;;;;;;10.13;4.53;;;;;;;;;;5074676;28;20025;-24
2022/09/24 11:56:34;;;;;;;8.68;4.03;;;;;;;;;;5074442;28;20028;-27
2022/09/24 11:59:19;;;;;;;10.98;4.10;;;;;;;;;;5075235;28;20059;-31
2022/09/24 12:01:49;;;;;;;10.52;5.25;;;;;;;;;;5074742;28;20029;-26
2022/09/24 12:04:17;;;;;;;13.68;3.90;;;;;;;;;;5074265;28;20370;-30
2022/09/24 12:06:43;;;;;;;7.05;4.13;;;;;;;;;;5074292;28;20036;-26
2022/09/24 12:09:09;;;;;;;8.88;4.05;;;;;;;;;;5074155;28;20496;-26
2022/09/24 12:11:40;;;;;;;14.95;3.75;;;;;;;;;;5074529;28;20334;-27
2022/09/24 12:14:26;;;;;;;11.23;3.50;;;;;;;;;;5074080;28;20028;-26
2022/09/24 12:17:04;;;;;;;8.27;4.07;;;;;;;;;;5074357;28;20389;-26
2022/09/24 12:19:30;;;;;;;8.02;4.22;;;;;;;;;;5074398;28;20028;-26
2022/09/24 12:21:57;;;;;;;20.70;5.97;;;;;;;;;;5074235;28;20032;-26
2022/09/24 12:24:26;;;;;;;12.95;4.93;;;;;;;;;;5074052;28;20060;-25
2022/09/24 12:26:56;;;;;;;7.70;4.03;;;;;;;;;;5074030;28;20040;-29
2022/09/24 12:35:13;;;;;;;8.27;4.20;;;;;;;;;;5074372;28;20116;-27
2022/09/24 12:37:40;;;;;;;8.13;4.13;;;;;;;;;;5077502;28;20024;-26
2022/09/24 12:40:21;;;;;;;11.43;4.53;;;;;;;;;;5078210;28;20036;-24
2022/09/24 12:42:52;;;;;;;12.82;4.10;;;;;;;;;;5077846;28;20064;-28
2022/09/24 12:45:21;;;;;;;7.00;4.80;;;;;;;;;;5077874;28;20028;-25
2022/09/24 12:48:05;;;;;;;11.73;3.92;;;;;;;;;;5060071;28;20032;-25
2022/09/24 12:50:33;;;;;;;8.63;3.53;;;;;;;;;;5078017;28;20036;-25
2022/09/24 12:52:59;;;;;;;13.82;4.55;;;;;;;;;;5077614;28;20028;-26
2022/09/24 12:55:34;;;;;;;11.23;4.22;;;;;;;;;;5077947;28;20033;-25
2022/09/24 12:58:00;;;;;;;8.65;4.57;;;;;;;;;;5077902;28;20048;-26
2022/09/24 13:00:44;;;;;;;8.35;4.30;;;;;;;;;;5077513;28;20128;-25
2022/09/24 13:03:29;;;;;;;17.50;4.05;;;;;;;;;;5077352;28;20048;-30
2022/09/24 13:05:58;;;;;;;9.57;5.63;;;;;;;;;;5059904;28;20090;-25
2022/09/24 13:08:26;;;;;;;15.18;4.05;;;;;;;;;;5077365;28;20121;-27
2022/09/24 13:10:59;;;;;;;10.52;3.85;;;;;;;;;;5077463;28;20016;-26
2022/09/24 13:13:25;;;;;;;5.38;4.03;;;;;;;;;;5077559;28;20028;-29
2022/09/24 13:16:03;;;;;;;15.40;4.85;;;;;;;;;;5077394;28;20032;-28
2022/09/24 13:18:30;;;;;;;6.72;3.70;;;;;;;;;;5077528;28;20067;-25
2022/09/24 13:21:01;;;;;;;7.88;3.83;;;;;;;;;;5077489;28;20032;-28
2022/09/24 13:23:28;;;;;;;9.55;3.95;;;;;;;;;;5077152;28;20060;-27
2022/09/24 13:25:57;;;;;;;13.50;4.72;;;;;;;;;;5077443;28;20036;-25
2022/09/24 13:28:27;;;;;;;9.68;4.68;;;;;;;;;;5076998;28;20111;-27
2022/09/24 13:30:57;;;;;;;10.20;3.53;;;;;;;;;;5077053;28;20481;-27
2022/09/24 13:33:30;;;;;;;11.35;4.05;;;;;;;;;;5059876;28;20456;-29
2022/09/24 13:36:12;;;;;;;7.13;3.85;;;;;;;;;;5059342;28;20032;-26
2022/09/24 13:38:42;;;;;;;7.68;3.70;;;;;;;;;;5059269;28;20032;-26
2022/09/24 13:41:22;;;;;;;7.22;3.92;;;;;;;;;;5059303;28;20028;-31
2022/09/24 13:43:52;;;;;;;10.02;4.00;;;;;;;;;;5077013;28;20361;-26
2022/09/24 13:46:19;;;;;;;5.50;3.67;;;;;;;;;;5076733;28;20039;-27
2022/09/24 13:49:16;;;;;;;15.35;4.35;;;;;;;;;;5058568;28;20411;-24
2022/09/24 13:51:44;;;;;;;9.23;4.38;;;;;;;;;;5060396;28;20415;-27
2022/09/24 13:54:25;;;;;;;8.18;3.72;;;;;;;;;;5076831;28;20032;-25
2022/09/24 13:57:09;;;;;;;11.43;4.27;;;;;;;;;;5076909;28;20047;-28
2022/09/24 13:59:36;;;;;;;7.75;4.82;;;;;;;;;;5076803;28;20041;-29
2022/09/24 14:02:02;;;;;;;9.35;4.28;;;;;;;;;;5077124;28;20032;-26
2022/09/24 14:04:29;;;;;;;5.30;3.75;;;;;;;;;;5058617;28;20059;-26
2022/09/24 14:06:56;;;;;;;7.28;4.60;;;;;;;;;;5076709;28;20108;-26
2022/09/24 14:09:26;;;;;;;7.68;5.97;;;;;;;;;;5076292;28;20365;-25
2022/09/24 14:11:54;;;;;;;8.13;4.03;;;;;;;;;;5059266;28;20037;-26
2022/09/24 14:14:23;;;;;;;7.03;4.18;;;;;;;;;;5076528;28;20098;-25
2022/09/24 14:16:49;;;;;;;5.88;3.53;;;;;;;;;;5076429;28;20036;-26
2022/09/24 14:19:16;;;;;;;8.40;5.72;;;;;;;;;;5076108;28;20032;-25
2022/09/24 14:21:55;;;;;;;5.65;4.13;;;;;;;;;;5076129;28;20534;-28
2022/09/24 14:24:23;;;;;;;7.10;4.28;;;;;;;;;;5058477;28;20032;-29
2022/09/24 14:26:57;;;;;;;10.75;3.42;;;;;;;;;;5076281;28;20039;-29
2022/09/24 14:29:39;;;;;;;6.05;4.18;;;;;;;;;;5075888;28;20357;-25
2022/09/24 14:32:06;;;;;;;6.63;4.22;;;;;;;;;;5058230;28;20496;-26
2022/09/24 14:34:38;;;;;;;5.50;4.00;;;;;;;;;;5075852;28;20461;-28
2022/09/24 14:37:12;;;;;;;7.93;4.63;;;;;;;;;;5076036;28;20082;-26
2022/09/24 14:39:41;;;;;;;10.85;3.83;;;;;;;;;;5058086;28;20028;-28
2022/09/24 14:42:10;;;;;;;12.07;4.30;;;;;;;;;;5075527;28;20021;-28
2022/09/24 14:44:38;;;;;;;6.70;3.78;;;;;;;;;;5058004;28;20037;-26
2022/09/24 14:47:04;;;;;;;8.25;4.50;;;;;;;;;;5075601;28;20098;-29
2022/09/24 14:49:32;;;;;;;11.10;4.07;;;;;;;;;;5075481;28;20032;-30
2022/09/24 14:51:59;;;;;;;6.88;4.07;;;;;;;;;;5057837;28;20021;-30
2022/09/24 14:54:31;;;;;;;12.48;4.25;;;;;;;;;;5057864;28;20056;-32
2022/09/24 14:57:16;;;;;;;7.55;4.20;;;;;;;;;;5075305;28;20021;-28
2022/09/24 14:59:42;;;;;;;7.32;3.97;;;;;;;;;;5056983;28;20028;-30
2022/09/24 15:02:17;;;;;;;6.35;3.90;;;;;;;;;;5057652;28;20431;-26
2022/09/24 15:04:45;;;;;;;8.98;4.18;;;;;;;;;;5075095;28;20048;-26
2022/09/24 15:07:19;;;;;;;6.15;4.32;;;;;;;;;;5075224;28;20032;-29
2022/09/24 15:09:48;;;;;;;7.10;4.30;;;;;;;;;;5057524;28;20036;-26